La Salle, Texas
Current Conditions -  °F | °C
As of 2:35 AM on Sunday 26 Oct 2014 (Local Time) from KPKV Reporting Station
Clear Clear  
Wind Chill: 61°   Ceiling: Unl
Heat Index: 61°   Visibility: 10mi
Dew Point: 58°   Wind: 3mph
Humidity: 91%   Direction: 240°WSW
Pressure: 30.07"   Gusts: NA
Location:  28.79°N, 96.67°W
Report Text: KPKV 260735Z AUTO 24003KT 10SM CLR 16/15 A3007 RMK AO2 T01590145
Loading
Personal Weather Stations






























Interactive Weather Map
Tropical Storm Tracking
New forecast layout! Learn more

10-Day Weather Forecast

Advertisements
Track Severe Weather on mobile